sensor_id;sensor_type;location;lat;lon;timestamp;temperature;humidity
22202;DHT22;11266;51.522;6.302;2023-05-21T00:00:12;14.80;99.90
22202;DHT22;11266;51.522;6.302;2023-05-21T00:00:58;14.80;99.90
22202;DHT22;11266;51.522;6.302;2023-05-21T00:01:45;14.80;99.90
22202;DHT22;11266;51.522;6.302;2023-05-21T00:02:32;14.80;99.90
22202;DHT22;11266;51.522;6.302;2023-05-21T00:03:18;14.80;99.90
22202;DHT22;11266;51.522;6.302;2023-05-21T00:04:05;14.80;99.90
22202;DHT22;11266;51.522;6.302;2023-05-21T00:04:52;14.80;99.90
22202;DHT22;11266;51.522;6.302;2023-05-21T00:05:38;14.80;99.90
22202;DHT22;11266;51.522;6.302;2023-05-21T00:06:25;14.80;99.90
22202;DHT22;11266;51.522;6.302;2023-05-21T00:07:11;14.80;99.90
22202;DHT22;11266;51.522;6.302;2023-05-21T00:07:57;14.80;99.90
22202;DHT22;11266;51.522;6.302;2023-05-21T00:08:42;14.80;99.90
22202;DHT22;11266;51.522;6.302;2023-05-21T00:09:28;14.80;99.90
22202;DHT22;11266;51.522;6.302;2023-05-21T00:10:14;14.80;99.90
22202;DHT22;11266;51.522;6.302;2023-05-21T00:11:00;14.80;99.90
22202;DHT22;11266;51.522;6.302;2023-05-21T00:11:46;14.80;99.90
22202;DHT22;11266;51.522;6.302;2023-05-21T00:12:31;14.70;99.90
22202;DHT22;11266;51.522;6.302;2023-05-21T00:13:17;14.80;99.90
22202;DHT22;11266;51.522;6.302;2023-05-21T00:14:03;14.70;99.90
22202;DHT22;11266;51.522;6.302;2023-05-21T00:14:49;14.70;99.90
22202;DHT22;11266;51.522;6.302;2023-05-21T00:15:35;14.70;99.90
22202;DHT22;11266;51.522;6.302;2023-05-21T00:16:21;14.70;99.90
22202;DHT22;11266;51.522;6.302;2023-05-21T00:17:07;14.70;99.90
22202;DHT22;11266;51.522;6.302;2023-05-21T00:17:53;14.70;99.90
22202;DHT22;11266;51.522;6.302;2023-05-21T00:18:39;14.70;99.90
22202;DHT22;11266;51.522;6.302;2023-05-21T00:19:24;14.70;99.90
22202;DHT22;11266;51.522;6.302;2023-05-21T00:20:11;14.70;99.90
22202;DHT22;11266;51.522;6.302;2023-05-21T00:20:57;14.70;99.90
22202;DHT22;11266;51.522;6.302;2023-05-21T00:21:43;14.70;99.90
22202;DHT22;11266;51.522;6.302;2023-05-21T00:22:30;14.60;99.90
22202;DHT22;11266;51.522;6.302;2023-05-21T00:23:17;14.60;99.90
22202;DHT22;11266;51.522;6.302;2023-05-21T00:24:04;14.60;99.90
22202;DHT22;11266;51.522;6.302;2023-05-21T00:24:50;14.60;99.90
22202;DHT22;11266;51.522;6.302;2023-05-21T00:25:36;14.60;99.90
22202;DHT22;11266;51.522;6.302;2023-05-21T00:26:21;14.60;99.90
22202;DHT22;11266;51.522;6.302;2023-05-21T00:27:12;14.50;99.90
22202;DHT22;11266;51.522;6.302;2023-05-21T00:27:57;14.50;99.90
22202;DHT22;11266;51.522;6.302;2023-05-21T00:28:43;14.60;99.90
22202;DHT22;11266;51.522;6.302;2023-05-21T00:29:29;14.50;99.90
22202;DHT22;11266;51.522;6.302;2023-05-21T00:30:15;14.60;99.90
22202;DHT22;11266;51.522;6.302;2023-05-21T00:31:01;14.50;99.90
22202;DHT22;11266;51.522;6.302;2023-05-21T00:31:47;14.60;99.90
22202;DHT22;11266;51.522;6.302;2023-05-21T00:32:34;14.50;99.90
22202;DHT22;11266;51.522;6.302;2023-05-21T00:33:21;14.50;99.90
22202;DHT22;11266;51.522;6.302;2023-05-21T00:34:07;14.50;99.90
22202;DHT22;11266;51.522;6.302;2023-05-21T00:34:53;14.50;99.90
22202;DHT22;11266;51.522;6.302;2023-05-21T00:35:39;14.50;99.90
22202;DHT22;11266;51.522;6.302;2023-05-21T00:36:25;14.50;99.90
22202;DHT22;11266;51.522;6.302;2023-05-21T00:37:11;14.50;99.90
22202;DHT22;11266;51.522;6.302;2023-05-21T00:37:59;14.50;99.90
22202;DHT22;11266;51.522;6.302;2023-05-21T00:38:45;14.50;99.90
22202;DHT22;11266;51.522;6.302;2023-05-21T00:39:31;14.50;99.90
22202;DHT22;11266;51.522;6.302;2023-05-21T00:40:17;14.50;99.90
22202;DHT22;11266;51.522;6.302;2023-05-21T00:41:03;14.40;99.90
22202;DHT22;11266;51.522;6.302;2023-05-21T00:41:49;14.40;99.90
22202;DHT22;11266;51.522;6.302;2023-05-21T00:42:35;14.50;99.90
22202;DHT22;11266;51.522;6.302;2023-05-21T00:43:24;14.50;99.90
22202;DHT22;11266;51.522;6.302;2023-05-21T00:44:10;14.40;99.90
22202;DHT22;11266;51.522;6.302;2023-05-21T00:44:58;14.40;99.90
22202;DHT22;11266;51.522;6.302;2023-05-21T00:45:45;14.40;99.90
22202;DHT22;11266;51.522;6.302;2023-05-21T00:46:31;14.40;99.90
22202;DHT22;11266;51.522;6.302;2023-05-21T00:47:17;14.40;99.90
22202;DHT22;11266;51.522;6.302;2023-05-21T00:48:03;14.40;99.90
22202;DHT22;11266;51.522;6.302;2023-05-21T00:48:51;14.40;99.90
22202;DHT22;11266;51.522;6.302;2023-05-21T00:49:37;14.40;99.90
22202;DHT22;11266;51.522;6.302;2023-05-21T00:50:22;14.40;99.90
22202;DHT22;11266;51.522;6.302;2023-05-21T00:51:08;14.30;99.90
22202;DHT22;11266;51.522;6.302;2023-05-21T00:51:54;14.40;99.90
22202;DHT22;11266;51.522;6.302;2023-05-21T00:52:42;14.30;99.90
22202;DHT22;11266;51.522;6.302;2023-05-21T00:53:30;14.30;99.90
22202;DHT22;11266;51.522;6.302;2023-05-21T00:54:16;14.40;99.90
22202;DHT22;11266;51.522;6.302;2023-05-21T00:55:02;14.40;99.90
22202;DHT22;11266;51.522;6.302;2023-05-21T00:55:49;14.30;99.90
22202;DHT22;11266;51.522;6.302;2023-05-21T00:56:34;14.30;99.90
22202;DHT22;11266;51.522;6.302;2023-05-21T00:57:23;14.30;99.90
22202;DHT22;11266;51.522;6.302;2023-05-21T00:58:09;14.30;99.90
22202;DHT22;11266;51.522;6.302;2023-05-21T00:58:56;14.30;99.90
22202;DHT22;11266;51.522;6.302;2023-05-21T00:59:43;14.30;99.90
22202;DHT22;11266;51.522;6.302;2023-05-21T01:00:32;14.30;99.90
22202;DHT22;11266;51.522;6.302;2023-05-21T01:01:18;14.30;99.90
22202;DHT22;11266;51.522;6.302;2023-05-21T01:02:04;14.30;99.90
22202;DHT22;11266;51.522;6.302;2023-05-21T01:02:51;14.30;99.90
22202;DHT22;11266;51.522;6.302;2023-05-21T01:03:36;14.30;99.90
22202;DHT22;11266;51.522;6.302;2023-05-21T01:04:22;14.30;99.90
22202;DHT22;11266;51.522;6.302;2023-05-21T01:05:09;14.30;99.90
22202;DHT22;11266;51.522;6.302;2023-05-21T01:05:55;14.20;99.90
22202;DHT22;11266;51.522;6.302;2023-05-21T01:06:44;14.20;99.90
22202;DHT22;11266;51.522;6.302;2023-05-21T01:07:30;14.20;99.90
22202;DHT22;11266;51.522;6.302;2023-05-21T01:08:19;14.20;99.90
22202;DHT22;11266;51.522;6.302;2023-05-21T01:09:06;14.20;99.90
22202;DHT22;11266;51.522;6.302;2023-05-21T01:09:52;14.20;99.90
22202;DHT22;11266;51.522;6.302;2023-05-21T01:10:38;14.20;99.90
22202;DHT22;11266;51.522;6.302;2023-05-21T01:11:40;14.20;99.90
22202;DHT22;11266;51.522;6.302;2023-05-21T01:12:28;14.20;99.90
22202;DHT22;11266;51.522;6.302;2023-05-21T01:13:14;14.20;99.90
22202;DHT22;11266;51.522;6.302;2023-05-21T01:14:01;14.20;99.90
22202;DHT22;11266;51.522;6.302;2023-05-21T01:14:47;14.20;99.90
22202;DHT22;11266;51.522;6.302;2023-05-21T01:15:34;14.20;99.90
22202;DHT22;11266;51.522;6.302;2023-05-21T01:16:22;14.20;99.90
22202;DHT22;11266;51.522;6.302;2023-05-21T01:17:08;14.20;99.90
22202;DHT22;11266;51.522;6.302;2023-05-21T01:17:57;14.20;99.90
22202;DHT22;11266;51.522;6.302;2023-05-21T01:18:43;14.10;99.90
22202;DHT22;11266;51.522;6.302;2023-05-21T01:19:29;14.20;99.90
22202;DHT22;11266;51.522;6.302;2023-05-21T01:20:18;14.20;99.90
22202;DHT22;11266;51.522;6.302;2023-05-21T01:21:04;14.20;99.90
22202;DHT22;11266;51.522;6.302;2023-05-21T01:21:55;14.10;99.90
22202;DHT22;11266;51.522;6.302;2023-05-21T01:22:48;14.10;99.90
22202;DHT22;11266;51.522;6.302;2023-05-21T01:23:34;14.10;99.90
22202;DHT22;11266;51.522;6.302;2023-05-21T01:24:20;14.10;99.90
22202;DHT22;11266;51.522;6.302;2023-05-21T01:25:06;14.20;99.90
22202;DHT22;11266;51.522;6.302;2023-05-21T01:25:52;14.20;99.90
22202;DHT22;11266;51.522;6.302;2023-05-21T01:26:38;14.10;99.90
22202;DHT22;11266;51.522;6.302;2023-05-21T01:27:25;14.10;99.90
22202;DHT22;11266;51.522;6.302;2023-05-21T01:28:11;14.10;99.90
22202;DHT22;11266;51.522;6.302;2023-05-21T01:28:57;14.10;99.90
22202;DHT22;11266;51.522;6.302;2023-05-21T01:29:43;14.10;99.90
22202;DHT22;11266;51.522;6.302;2023-05-21T01:30:29;14.10;99.90
22202;DHT22;11266;51.522;6.302;2023-05-21T01:31:40;14.10;99.90
22202;DHT22;11266;51.522;6.302;2023-05-21T01:32:37;14.10;99.90
22202;DHT22;11266;51.522;6.302;2023-05-21T01:33:40;14.10;99.90
22202;DHT22;11266;51.522;6.302;2023-05-21T01:35:31;14.10;99.90
22202;DHT22;11266;51.522;6.302;2023-05-21T01:36:22;14.10;99.90
22202;DHT22;11266;51.522;6.302;2023-05-21T01:37:20;14.10;99.90
22202;DHT22;11266;51.522;6.302;2023-05-21T01:38:16;14.10;99.90
22202;DHT22;11266;51.522;6.302;2023-05-21T01:39:10;14.10;99.90
22202;DHT22;11266;51.522;6.302;2023-05-21T01:40:13;14.10;99.90
22202;DHT22;11266;51.522;6.302;2023-05-21T01:41:09;14.10;99.90
22202;DHT22;11266;51.522;6.302;2023-05-21T01:41:56;14.10;99.90
22202;DHT22;11266;51.522;6.302;2023-05-21T01:42:43;14.10;99.90
22202;DHT22;11266;51.522;6.302;2023-05-21T01:43:37;14.00;99.90
22202;DHT22;11266;51.522;6.302;2023-05-21T01:44:24;14.00;99.90
22202;DHT22;11266;51.522;6.302;2023-05-21T01:45:13;14.00;99.90
22202;DHT22;11266;51.522;6.302;2023-05-21T01:46:00;14.00;99.90
22202;DHT22;11266;51.522;6.302;2023-05-21T01:46:46;14.00;99.90
22202;DHT22;11266;51.522;6.302;2023-05-21T01:47:36;14.00;99.90
22202;DHT22;11266;51.522;6.302;2023-05-21T01:48:27;14.00;99.90
22202;DHT22;11266;51.522;6.302;2023-05-21T01:49:13;14.10;99.90
22202;DHT22;11266;51.522;6.302;2023-05-21T01:50:01;14.10;99.90
22202;DHT22;11266;51.522;6.302;2023-05-21T01:50:49;14.10;99.90
22202;DHT22;11266;51.522;6.302;2023-05-21T01:51:36;14.10;99.90
22202;DHT22;11266;51.522;6.302;2023-05-21T01:52:22;14.10;99.90
22202;DHT22;11266;51.522;6.302;2023-05-21T01:53:08;14.10;99.90
22202;DHT22;11266;51.522;6.302;2023-05-21T01:53:53;14.10;99.90
22202;DHT22;11266;51.522;6.302;2023-05-21T01:54:39;14.10;99.90
22202;DHT22;11266;51.522;6.302;2023-05-21T01:55:26;14.10;99.90
22202;DHT22;11266;51.522;6.302;2023-05-21T01:56:12;14.10;99.90
22202;DHT22;11266;51.522;6.302;2023-05-21T01:57:00;14.00;99.90
22202;DHT22;11266;51.522;6.302;2023-05-21T01:57:46;14.00;99.90
22202;DHT22;11266;51.522;6.302;2023-05-21T01:58:31;14.00;99.90
22202;DHT22;11266;51.522;6.302;2023-05-21T01:59:17;14.00;99.90
22202;DHT22;11266;51.522;6.302;2023-05-21T02:00:05;14.00;99.90
22202;DHT22;11266;51.522;6.302;2023-05-21T02:00:51;14.00;99.90
22202;DHT22;11266;51.522;6.302;2023-05-21T02:01:36;14.00;99.90
22202;DHT22;11266;51.522;6.302;2023-05-21T02:02:22;14.00;99.90
22202;DHT22;11266;51.522;6.302;2023-05-21T02:03:08;14.00;99.90
22202;DHT22;11266;51.522;6.302;2023-05-21T02:03:54;14.00;99.90
22202;DHT22;11266;51.522;6.302;2023-05-21T02:04:40;14.00;99.90
22202;DHT22;11266;51.522;6.302;2023-05-21T02:05:26;14.00;99.90
22202;DHT22;11266;51.522;6.302;2023-05-21T02:06:12;14.00;99.90
22202;DHT22;11266;51.522;6.302;2023-05-21T02:06:58;14.00;99.90
22202;DHT22;11266;51.522;6.302;2023-05-21T02:07:44;13.90;99.90
22202;DHT22;11266;51.522;6.302;2023-05-21T02:08:30;14.00;99.90
22202;DHT22;11266;51.522;6.302;2023-05-21T02:09:16;13.90;99.90
22202;DHT22;11266;51.522;6.302;2023-05-21T02:10:03;14.00;99.90
22202;DHT22;11266;51.522;6.302;2023-05-21T02:10:49;13.90;99.90
22202;DHT22;11266;51.522;6.302;2023-05-21T02:11:35;13.90;99.90
22202;DHT22;11266;51.522;6.302;2023-05-21T02:12:21;13.90;99.90
22202;DHT22;11266;51.522;6.302;2023-05-21T02:13:06;13.90;99.90
22202;DHT22;11266;51.522;6.302;2023-05-21T02:13:52;14.00;99.90
22202;DHT22;11266;51.522;6.302;2023-05-21T02:14:38;13.90;99.90
22202;DHT22;11266;51.522;6.302;2023-05-21T02:15:24;13.90;99.90
22202;DHT22;11266;51.522;6.302;2023-05-21T02:16:11;13.90;99.90
22202;DHT22;11266;51.522;6.302;2023-05-21T02:16:59;13.90;99.90
22202;DHT22;11266;51.522;6.302;2023-05-21T02:17:46;13.90;99.90
22202;DHT22;11266;51.522;6.302;2023-05-21T02:18:31;13.90;99.90
22202;DHT22;11266;51.522;6.302;2023-05-21T02:19:18;13.90;99.90
22202;DHT22;11266;51.522;6.302;2023-05-21T02:20:05;13.90;99.90
22202;DHT22;11266;51.522;6.302;2023-05-21T02:21:00;13.90;99.90
22202;DHT22;11266;51.522;6.302;2023-05-21T02:21:46;13.90;99.90
22202;DHT22;11266;51.522;6.302;2023-05-21T02:22:32;13.90;99.90
22202;DHT22;11266;51.522;6.302;2023-05-21T02:23:17;13.90;99.90
22202;DHT22;11266;51.522;6.302;2023-05-21T02:24:03;13.90;99.90
22202;DHT22;11266;51.522;6.302;2023-05-21T02:24:49;13.90;99.90
22202;DHT22;11266;51.522;6.302;2023-05-21T02:25:35;13.90;99.90
22202;DHT22;11266;51.522;6.302;2023-05-21T02:26:21;13.90;99.90
22202;DHT22;11266;51.522;6.302;2023-05-21T02:27:09;13.90;99.90
22202;DHT22;11266;51.522;6.302;2023-05-21T02:27:55;13.90;99.90
22202;DHT22;11266;51.522;6.302;2023-05-21T02:28:41;13.90;99.90
22202;DHT22;11266;51.522;6.302;2023-05-21T02:29:27;13.90;99.90
22202;DHT22;11266;51.522;6.302;2023-05-21T02:30:14;13.90;99.90
22202;DHT22;11266;51.522;6.302;2023-05-21T02:31:00;13.90;99.90
22202;DHT22;11266;51.522;6.302;2023-05-21T02:31:46;13.90;99.90
22202;DHT22;11266;51.522;6.302;2023-05-21T02:32:32;13.90;99.90
22202;DHT22;11266;51.522;6.302;2023-05-21T02:33:18;13.90;99.90
22202;DHT22;11266;51.522;6.302;2023-05-21T02:34:04;13.90;99.90
22202;DHT22;11266;51.522;6.302;2023-05-21T02:34:52;13.90;99.90
22202;DHT22;11266;51.522;6.302;2023-05-21T02:35:38;13.90;99.90
22202;DHT22;11266;51.522;6.302;2023-05-21T02:36:23;13.90;99.90
22202;DHT22;11266;51.522;6.302;2023-05-21T02:37:09;13.90;99.90
22202;DHT22;11266;51.522;6.302;2023-05-21T02:37:55;13.90;99.90
22202;DHT22;11266;51.522;6.302;2023-05-21T02:38:43;13.90;99.90
22202;DHT22;11266;51.522;6.302;2023-05-21T02:39:29;13.90;99.90
22202;DHT22;11266;51.522;6.302;2023-05-21T02:40:15;13.80;99.90
22202;DHT22;11266;51.522;6.302;2023-05-21T02:41:01;13.80;99.90
22202;DHT22;11266;51.522;6.302;2023-05-21T02:41:47;13.80;99.90
22202;DHT22;11266;51.522;6.302;2023-05-21T02:42:33;13.80;99.90
22202;DHT22;11266;51.522;6.302;2023-05-21T02:43:20;13.80;99.90
22202;DHT22;11266;51.522;6.302;2023-05-21T02:44:06;13.90;99.90
22202;DHT22;11266;51.522;6.302;2023-05-21T02:44:52;13.90;99.90
22202;DHT22;11266;51.522;6.302;2023-05-21T02:45:39;13.80;99.90
22202;DHT22;11266;51.522;6.302;2023-05-21T02:46:24;13.80;99.90
22202;DHT22;11266;51.522;6.302;2023-05-21T02:47:10;13.80;99.90
22202;DHT22;11266;51.522;6.302;2023-05-21T02:47:57;13.80;99.90
22202;DHT22;11266;51.522;6.302;2023-05-21T02:48:42;13.80;99.90
22202;DHT22;11266;51.522;6.302;2023-05-21T02:49:28;13.80;99.90
22202;DHT22;11266;51.522;6.302;2023-05-21T02:50:14;13.80;99.90
22202;DHT22;11266;51.522;6.302;2023-05-21T02:51:00;13.80;99.90
22202;DHT22;11266;51.522;6.302;2023-05-21T02:51:46;13.80;99.90
22202;DHT22;11266;51.522;6.302;2023-05-21T02:52:32;13.80;99.90
22202;DHT22;11266;51.522;6.302;2023-05-21T02:53:18;13.80;99.90
22202;DHT22;11266;51.522;6.302;2023-05-21T02:54:03;13.80;99.90
22202;DHT22;11266;51.522;6.302;2023-05-21T02:54:50;13.70;99.90
22202;DHT22;11266;51.522;6.302;2023-05-21T02:55:35;13.80;99.90
22202;DHT22;11266;51.522;6.302;2023-05-21T02:56:21;13.80;99.90
22202;DHT22;11266;51.522;6.302;2023-05-21T02:57:07;13.70;99.90
22202;DHT22;11266;51.522;6.302;2023-05-21T02:57:53;13.80;99.90
22202;DHT22;11266;51.522;6.302;2023-05-21T02:58:39;13.80;99.90
22202;DHT22;11266;51.522;6.302;2023-05-21T02:59:24;13.80;99.90
22202;DHT22;11266;51.522;6.302;2023-05-21T03:00:11;13.80;99.90
22202;DHT22;11266;51.522;6.302;2023-05-21T03:00:57;13.80;99.90
22202;DHT22;11266;51.522;6.302;2023-05-21T03:01:43;13.80;99.90
22202;DHT22;11266;51.522;6.302;2023-05-21T03:02:29;13.70;99.90
22202;DHT22;11266;51.522;6.302;2023-05-21T03:03:15;13.80;99.90
22202;DHT22;11266;51.522;6.302;2023-05-21T03:04:01;13.70;99.90
22202;DHT22;11266;51.522;6.302;2023-05-21T03:04:46;13.70;99.90
22202;DHT22;11266;51.522;6.302;2023-05-21T03:05:33;13.70;99.90
22202;DHT22;11266;51.522;6.302;2023-05-21T03:06:19;13.70;99.90
22202;DHT22;11266;51.522;6.302;2023-05-21T03:07:05;13.80;99.90
22202;DHT22;11266;51.522;6.302;2023-05-21T03:07:51;13.70;99.90
22202;DHT22;11266;51.522;6.302;2023-05-21T03:08:37;13.70;99.90
22202;DHT22;11266;51.522;6.302;2023-05-21T03:09:23;13.70;99.90
22202;DHT22;11266;51.522;6.302;2023-05-21T03:10:09;13.80;99.90
22202;DHT22;11266;51.522;6.302;2023-05-21T03:10:55;13.70;99.90
22202;DHT22;11266;51.522;6.302;2023-05-21T03:11:41;13.70;99.90
22202;DHT22;11266;51.522;6.302;2023-05-21T03:12:27;13.70;99.90
22202;DHT22;11266;51.522;6.302;2023-05-21T03:13:13;13.70;99.90
22202;DHT22;11266;51.522;6.302;2023-05-21T03:13:59;13.70;99.90
22202;DHT22;11266;51.522;6.302;2023-05-21T03:14:45;13.70;99.90
22202;DHT22;11266;51.522;6.302;2023-05-21T03:15:31;13.70;99.90
22202;DHT22;11266;51.522;6.302;2023-05-21T03:16:17;13.70;99.90
22202;DHT22;11266;51.522;6.302;2023-05-21T03:17:04;13.70;99.90
22202;DHT22;11266;51.522;6.302;2023-05-21T03:17:53;13.70;99.90
22202;DHT22;11266;51.522;6.302;2023-05-21T03:18:39;13.70;99.90
22202;DHT22;11266;51.522;6.302;2023-05-21T03:19:25;13.70;99.90
22202;DHT22;11266;51.522;6.302;2023-05-21T03:20:11;13.70;99.90
22202;DHT22;11266;51.522;6.302;2023-05-21T03:21:00;13.70;99.90
22202;DHT22;11266;51.522;6.302;2023-05-21T03:21:46;13.70;99.90
22202;DHT22;11266;51.522;6.302;2023-05-21T03:22:33;13.70;99.90
22202;DHT22;11266;51.522;6.302;2023-05-21T03:23:20;13.70;99.90
22202;DHT22;11266;51.522;6.302;2023-05-21T03:24:06;13.70;99.90
22202;DHT22;11266;51.522;6.302;2023-05-21T03:24:52;13.70;99.90
22202;DHT22;11266;51.522;6.302;2023-05-21T03:25:38;13.70;99.90
22202;DHT22;11266;51.522;6.302;2023-05-21T03:26:25;13.60;99.90
22202;DHT22;11266;51.522;6.302;2023-05-21T03:27:11;13.70;99.90
22202;DHT22;11266;51.522;6.302;2023-05-21T03:27:57;13.70;99.90
22202;DHT22;11266;51.522;6.302;2023-05-21T03:28:43;13.60;99.90
22202;DHT22;11266;51.522;6.302;2023-05-21T03:29:29;13.60;99.90
22202;DHT22;11266;51.522;6.302;2023-05-21T03:30:15;13.70;99.90
22202;DHT22;11266;51.522;6.302;2023-05-21T03:31:01;13.60;99.90
22202;DHT22;11266;51.522;6.302;2023-05-21T03:31:46;13.60;99.90
22202;DHT22;11266;51.522;6.302;2023-05-21T03:32:32;13.60;99.90
22202;DHT22;11266;51.522;6.302;2023-05-21T03:33:22;13.60;99.90
22202;DHT22;11266;51.522;6.302;2023-05-21T03:34:07;13.60;99.90
22202;DHT22;11266;51.522;6.302;2023-05-21T03:34:53;13.60;99.90
22202;DHT22;11266;51.522;6.302;2023-05-21T03:35:39;13.60;99.90
22202;DHT22;11266;51.522;6.302;2023-05-21T03:36:24;13.60;99.90
22202;DHT22;11266;51.522;6.302;2023-05-21T03:37:10;13.60;99.90
22202;DHT22;11266;51.522;6.302;2023-05-21T03:37:56;13.60;99.90
22202;DHT22;11266;51.522;6.302;2023-05-21T03:38:42;13.60;99.90
22202;DHT22;11266;51.522;6.302;2023-05-21T03:39:27;13.60;99.90
22202;DHT22;11266;51.522;6.302;2023-05-21T03:40:13;13.60;99.90
22202;DHT22;11266;51.522;6.302;2023-05-21T03:40:59;13.60;99.90
22202;DHT22;11266;51.522;6.302;2023-05-21T03:41:45;13.60;99.90
22202;DHT22;11266;51.522;6.302;2023-05-21T03:42:31;13.60;99.90
22202;DHT22;11266;51.522;6.302;2023-05-21T03:43:16;13.60;99.90
22202;DHT22;11266;51.522;6.302;2023-05-21T03:44:02;13.60;99.90
22202;DHT22;11266;51.522;6.302;2023-05-21T03:44:48;13.60;99.90
22202;DHT22;11266;51.522;6.302;2023-05-21T03:45:34;13.60;99.90
22202;DHT22;11266;51.522;6.302;2023-05-21T03:46:20;13.60;99.90
22202;DHT22;11266;51.522;6.302;2023-05-21T03:47:05;13.60;99.90
22202;DHT22;11266;51.522;6.302;2023-05-21T03:47:51;13.60;99.90
22202;DHT22;11266;51.522;6.302;2023-05-21T03:48:37;13.60;99.90
22202;DHT22;11266;51.522;6.302;2023-05-21T03:49:24;13.60;99.90
22202;DHT22;11266;51.522;6.302;2023-05-21T03:50:10;13.60;99.90
22202;DHT22;11266;51.522;6.302;2023-05-21T03:50:56;13.60;99.90
22202;DHT22;11266;51.522;6.302;2023-05-21T03:51:42;13.60;99.90
22202;DHT22;11266;51.522;6.302;2023-05-21T03:52:28;13.60;99.90
22202;DHT22;11266;51.522;6.302;2023-05-21T03:53:14;13.60;99.90
22202;DHT22;11266;51.522;6.302;2023-05-21T03:53:59;13.60;99.90
22202;DHT22;11266;51.522;6.302;2023-05-21T03:54:45;13.60;99.90
22202;DHT22;11266;51.522;6.302;2023-05-21T03:55:31;13.60;99.90
22202;DHT22;11266;51.522;6.302;2023-05-21T03:56:17;13.60;99.90
22202;DHT22;11266;51.522;6.302;2023-05-21T03:57:03;13.60;99.90
22202;DHT22;11266;51.522;6.302;2023-05-21T03:57:48;13.60;99.90
22202;DHT22;11266;51.522;6.302;2023-05-21T03:58:34;13.60;99.90
22202;DHT22;11266;51.522;6.302;2023-05-21T03:59:20;13.60;99.90
22202;DHT22;11266;51.522;6.302;2023-05-21T04:00:06;13.60;99.90
22202;DHT22;11266;51.522;6.302;2023-05-21T04:00:53;13.60;99.90
22202;DHT22;11266;51.522;6.302;2023-05-21T04:01:39;13.60;99.90
22202;DHT22;11266;51.522;6.302;2023-05-21T04:02:25;13.60;99.90
22202;DHT22;11266;51.522;6.302;2023-05-21T04:03:11;13.60;99.90
22202;DHT22;11266;51.522;6.302;2023-05-21T04:03:57;13.60;99.90
22202;DHT22;11266;51.522;6.302;2023-05-21T04:04:43;13.60;99.90
22202;DHT22;11266;51.522;6.302;2023-05-21T04:05:29;13.60;99.90
22202;DHT22;11266;51.522;6.302;2023-05-21T04:06:15;13.60;99.90
22202;DHT22;11266;51.522;6.302;2023-05-21T04:07:01;13.60;99.90
22202;DHT22;11266;51.522;6.302;2023-05-21T04:07:49;13.60;99.90
22202;DHT22;11266;51.522;6.302;2023-05-21T04:08:34;13.60;99.90
22202;DHT22;11266;51.522;6.302;2023-05-21T04:09:22;13.60;99.90
22202;DHT22;11266;51.522;6.302;2023-05-21T04:10:08;13.60;99.90
22202;DHT22;11266;51.522;6.302;2023-05-21T04:10:54;13.60;99.90
22202;DHT22;11266;51.522;6.302;2023-05-21T04:11:39;13.60;99.90
22202;DHT22;11266;51.522;6.302;2023-05-21T04:12:25;13.60;99.90
22202;DHT22;11266;51.522;6.302;2023-05-21T04:13:11;13.60;99.90
22202;DHT22;11266;51.522;6.302;2023-05-21T04:13:56;13.60;99.90
22202;DHT22;11266;51.522;6.302;2023-05-21T04:14:42;13.60;99.90
22202;DHT22;11266;51.522;6.302;2023-05-21T04:15:28;13.60;99.90
22202;DHT22;11266;51.522;6.302;2023-05-21T04:16:14;13.60;99.90
22202;DHT22;11266;51.522;6.302;2023-05-21T04:17:03;13.60;99.90
22202;DHT22;11266;51.522;6.302;2023-05-21T04:17:49;13.60;99.90
22202;DHT22;11266;51.522;6.302;2023-05-21T04:18:36;13.60;99.90
22202;DHT22;11266;51.522;6.302;2023-05-21T04:19:22;13.60;99.90
22202;DHT22;11266;51.522;6.302;2023-05-21T04:20:08;13.60;99.90
22202;DHT22;11266;51.522;6.302;2023-05-21T04:20:54;13.60;99.90
22202;DHT22;11266;51.522;6.302;2023-05-21T04:21:40;13.50;99.90
22202;DHT22;11266;51.522;6.302;2023-05-21T04:22:26;13.60;99.90
22202;DHT22;11266;51.522;6.302;2023-05-21T04:23:12;13.60;99.90
22202;DHT22;11266;51.522;6.302;2023-05-21T04:23:57;13.60;99.90
22202;DHT22;11266;51.522;6.302;2023-05-21T04:24:45;13.60;99.90
22202;DHT22;11266;51.522;6.302;2023-05-21T04:25:30;13.60;99.90
22202;DHT22;11266;51.522;6.302;2023-05-21T04:26:16;13.60;99.90
22202;DHT22;11266;51.522;6.302;2023-05-21T04:27:02;13.60;99.90
22202;DHT22;11266;51.522;6.302;2023-05-21T04:27:48;13.60;99.90
22202;DHT22;11266;51.522;6.302;2023-05-21T04:28:34;13.60;99.90
22202;DHT22;11266;51.522;6.302;2023-05-21T04:29:20;13.60;99.90
22202;DHT22;11266;51.522;6.302;2023-05-21T04:30:07;13.60;99.90
22202;DHT22;11266;51.522;6.302;2023-05-21T04:30:53;13.60;99.90
22202;DHT22;11266;51.522;6.302;2023-05-21T04:31:40;13.60;99.90
22202;DHT22;11266;51.522;6.302;2023-05-21T04:32:26;13.60;99.90
22202;DHT22;11266;51.522;6.302;2023-05-21T04:33:15;13.60;99.90
22202;DHT22;11266;51.522;6.302;2023-05-21T04:34:02;13.60;99.90
22202;DHT22;11266;51.522;6.302;2023-05-21T04:34:48;13.60;99.90
22202;DHT22;11266;51.522;6.302;2023-05-21T04:35:34;13.60;99.90
22202;DHT22;11266;51.522;6.302;2023-05-21T04:36:20;13.70;99.90
22202;DHT22;11266;51.522;6.302;2023-05-21T04:37:05;13.60;99.90
22202;DHT22;11266;51.522;6.302;2023-05-21T04:37:51;13.70;99.90
22202;DHT22;11266;51.522;6.302;2023-05-21T04:38:39;13.70;99.90
22202;DHT22;11266;51.522;6.302;2023-05-21T04:39:26;13.60;99.90
22202;DHT22;11266;51.522;6.302;2023-05-21T04:40:13;13.70;99.90
22202;DHT22;11266;51.522;6.302;2023-05-21T04:41:02;13.60;99.90
22202;DHT22;11266;51.522;6.302;2023-05-21T04:41:48;13.70;99.90
22202;DHT22;11266;51.522;6.302;2023-05-21T04:42:35;13.60;99.90
22202;DHT22;11266;51.522;6.302;2023-05-21T04:43:20;13.70;99.90
22202;DHT22;11266;51.522;6.302;2023-05-21T04:44:11;13.70;99.90
22202;DHT22;11266;51.522;6.302;2023-05-21T04:44:59;13.70;99.90
22202;DHT22;11266;51.522;6.302;2023-05-21T04:45:45;13.70;99.90
22202;DHT22;11266;51.522;6.302;2023-05-21T04:46:31;13.70;99.90
22202;DHT22;11266;51.522;6.302;2023-05-21T04:47:17;13.70;99.90
22202;DHT22;11266;51.522;6.302;2023-05-21T04:48:05;13.70;99.90
22202;DHT22;11266;51.522;6.302;2023-05-21T04:48:52;13.70;99.90
22202;DHT22;11266;51.522;6.302;2023-05-21T04:49:39;13.60;99.90
22202;DHT22;11266;51.522;6.302;2023-05-21T04:50:25;13.70;99.90
22202;DHT22;11266;51.522;6.302;2023-05-21T04:51:11;13.70;99.90
22202;DHT22;11266;51.522;6.302;2023-05-21T04:51:57;13.60;99.90
22202;DHT22;11266;51.522;6.302;2023-05-21T04:52:43;13.70;99.90
22202;DHT22;11266;51.522;6.302;2023-05-21T04:53:30;13.70;99.90
22202;DHT22;11266;51.522;6.302;2023-05-21T04:54:15;13.70;99.90
22202;DHT22;11266;51.522;6.302;2023-05-21T04:55:02;13.70;99.90
22202;DHT22;11266;51.522;6.302;2023-05-21T04:55:48;13.70;99.90